Time;durP1;ratioP1;P1;durP2;ratioP2;P2;SDS_P1;SDS_P2;PMS_P1;PMS_P2;Temp;Humidity;BMP_temperature;BMP_pressure;BME280_temperature;BME280_humidity;BME280_pressure;Samples;Min_cycle;Max_cycle;Signal;HPM_P1;HPM_P2
2021/05/22 00:02:04;;;;;;;10.55;2.25;;;11.60;84.10;;;;;;5033452;28;20045;-71
2021/05/22 00:04:29;;;;;;;8.57;1.85;;;11.70;84.20;;;;;;5033409;28;20037;-71
2021/05/22 00:06:55;;;;;;;10.57;2.28;;;11.70;83.70;;;;;;5033579;28;20034;-71
2021/05/22 00:09:21;;;;;;;19.35;2.92;;;11.70;83.90;;;;;;5033108;28;20037;-71
2021/05/22 00:11:46;;;;;;;10.35;2.25;;;11.60;84.50;;;;;;5033542;28;20038;-71
2021/05/22 00:14:12;;;;;;;9.13;2.20;;;11.70;83.90;;;;;;5033133;28;20033;-71
2021/05/22 00:16:38;;;;;;;11.05;2.13;;;11.70;83.50;;;;;;5015833;28;20107;-71
2021/05/22 00:19:03;;;;;;;9.57;1.80;;;11.70;83.60;;;;;;5032864;28;20068;-71
2021/05/22 00:21:29;;;;;;;8.55;1.73;;;11.70;83.20;;;;;;5033086;28;20041;-71
2021/05/22 00:23:55;;;;;;;10.57;1.98;;;11.80;82.40;;;;;;5033561;28;20037;-71
2021/05/22 00:26:21;;;;;;;11.35;2.00;;;11.80;82.50;;;;;;5033253;28;20033;-71
2021/05/22 00:28:47;;;;;;;9.25;2.25;;;11.80;83.10;;;;;;5032718;28;20033;-71
2021/05/22 00:31:12;;;;;;;14.77;1.92;;;11.80;82.60;;;;;;5033060;28;20076;-71
2021/05/22 00:33:38;;;;;;;10.75;1.98;;;11.80;82.00;;;;;;5033002;28;20041;-71
2021/05/22 00:36:04;;;;;;;10.93;1.63;;;11.80;83.60;;;;;;5033349;28;20045;-71
2021/05/22 00:38:30;;;;;;;6.20;1.50;;;11.80;83.20;;;;;;5033218;28;20038;-72
2021/05/22 00:40:56;;;;;;;12.68;2.40;;;11.90;82.30;;;;;;5033593;28;20084;-71
2021/05/22 00:43:22;;;;;;;11.52;2.05;;;11.80;81.10;;;;;;5033634;28;20037;-71
2021/05/22 00:45:50;;;;;;;10.00;1.67;;;11.80;81.50;;;;;;5033046;28;20045;-71
2021/05/22 00:48:19;;;;;;;7.20;1.55;;;11.70;81.60;;;;;;5033060;28;20048;-71
2021/05/22 00:50:45;;;;;;;10.55;2.65;;;11.80;81.60;;;;;;5032529;28;20037;-71
2021/05/22 00:53:12;;;;;;;6.32;1.70;;;11.70;83.00;;;;;;4999016;28;20405;-71
2021/05/22 00:55:38;;;;;;;13.05;1.40;;;11.60;84.10;;;;;;5032919;28;20485;-71
2021/05/22 00:58:05;;;;;;;7.38;1.67;;;11.50;85.10;;;;;;5032855;28;20513;-71
2021/05/22 01:00:43;;;;;;;6.80;1.60;;;11.40;86.00;;;;;;5032541;28;20540;-71
2021/05/22 01:03:15;;;;;;;9.45;2.28;;;11.30;87.60;;;;;;5032777;28;20041;-72
2021/05/22 01:05:42;;;;;;;8.65;1.80;;;11.30;87.60;;;;;;5034022;28;20046;-71
2021/05/22 01:08:18;;;;;;;7.63;1.75;;;11.20;88.00;;;;;;5036627;28;20038;-71
2021/05/22 01:10:45;;;;;;;4.95;1.85;;;11.20;88.50;;;;;;5036105;28;20119;-71
2021/05/22 01:13:13;;;;;;;7.82;1.98;;;11.20;88.90;;;;;;5036591;28;20076;-71
2021/05/22 01:15:42;;;;;;;6.90;1.38;;;11.20;89.10;;;;;;5036554;28;20068;-71
2021/05/22 01:18:09;;;;;;;6.93;1.75;;;11.10;90.20;;;;;;5036941;28;20045;-71
2021/05/22 01:20:39;;;;;;;6.30;1.95;;;11.10;90.10;;;;;;5035841;28;20041;-71
2021/05/22 01:23:10;;;;;;;8.60;1.88;;;11.10;90.10;;;;;;5036262;28;20044;-71
2021/05/22 01:25:41;;;;;;;11.40;2.13;;;11.10;89.90;;;;;;5036394;28;20038;-71
2021/05/22 01:28:09;;;;;;;11.05;2.03;;;11.10;89.80;;;;;;5036111;28;20047;-71
2021/05/22 01:30:35;;;;;;;10.90;2.05;;;11.10;90.00;;;;;;5036185;28;20045;-71
2021/05/22 01:33:02;;;;;;;16.52;3.38;;;11.10;90.00;;;;;;5036658;28;20038;-71
2021/05/22 01:35:28;;;;;;;7.97;1.88;;;11.10;90.00;;;;;;5035956;28;20041;-71
2021/05/22 01:37:54;;;;;;;9.23;2.13;;;11.10;90.00;;;;;;5035945;28;20045;-71
2021/05/22 01:40:19;;;;;;;10.90;2.30;;;11.10;88.80;;;;;;5035660;28;20096;-71
2021/05/22 01:42:45;;;;;;;8.25;1.50;;;11.10;89.20;;;;;;5035892;28;20041;-71
2021/05/22 01:45:18;;;;;;;9.70;2.20;;;11.10;89.00;;;;;;5036171;28;20386;-71
2021/05/22 01:47:47;;;;;;;8.73;1.92;;;11.10;88.90;;;;;;5035755;28;20041;-71
2021/05/22 01:50:16;;;;;;;7.55;1.80;;;11.10;88.30;;;;;;5017742;28;20044;-71
2021/05/22 01:52:45;;;;;;;7.57;2.15;;;11.20;88.30;;;;;;5036155;28;20108;-71
2021/05/22 01:55:13;;;;;;;12.52;2.92;;;11.10;88.80;;;;;;5018247;28;20041;-71
2021/05/22 01:57:40;;;;;;;6.10;1.67;;;11.10;89.50;;;;;;5035627;28;20045;-71
2021/05/22 02:00:07;;;;;;;8.95;1.95;;;11.10;90.10;;;;;;5035317;28;20037;-71
2021/05/22 02:02:34;;;;;;;6.00;1.65;;;11.10;90.00;;;;;;5017809;28;20482;-71
2021/05/22 02:05:05;;;;;;;6.10;1.65;;;11.10;90.60;;;;;;5035528;28;20541;-71
2021/05/22 02:07:34;;;;;;;6.32;1.70;;;11.10;90.60;;;;;;5035690;28;20508;-71
2021/05/22 02:10:01;;;;;;;6.28;1.80;;;11.10;90.50;;;;;;5035000;28;20129;-71
2021/05/22 02:12:28;;;;;;;6.00;1.65;;;11.10;90.70;;;;;;5035385;28;20045;-71
2021/05/22 02:14:55;;;;;;;6.53;1.45;;;11.10;90.60;;;;;;5035888;28;20079;-71
2021/05/22 02:17:23;;;;;;;8.52;1.73;;;11.10;90.60;;;;;;5034897;28;20048;-71
2021/05/22 02:19:52;;;;;;;8.02;1.63;;;11.10;90.70;;;;;;5035004;28;20048;-71
2021/05/22 02:22:23;;;;;;;12.75;2.03;;;11.10;90.40;;;;;;5017638;28;20045;-71
2021/05/22 02:24:55;;;;;;;9.10;1.40;;;11.10;90.70;;;;;;5035043;28;20044;-71
2021/05/22 02:27:22;;;;;;;9.87;2.07;;;11.10;90.80;;;;;;5035262;28;20045;-72
2021/05/22 02:29:48;;;;;;;7.75;1.95;;;11.10;90.90;;;;;;5034685;28;20042;-71
2021/05/22 02:32:15;;;;;;;6.03;2.00;;;11.10;91.00;;;;;;5035507;28;20040;-72
2021/05/22 02:34:51;;;;;;;8.10;2.35;;;11.10;90.90;;;;;;5034995;28;20042;-71
2021/05/22 02:37:20;;;;;;;6.13;1.30;;;11.10;90.90;;;;;;5035038;28;20049;-71
2021/05/22 02:39:50;;;;;;;8.52;1.58;;;11.10;91.10;;;;;;5034455;28;20485;-71
2021/05/22 02:42:17;;;;;;;8.20;1.90;;;11.10;91.10;;;;;;5034795;28;20061;-71
2021/05/22 02:44:48;;;;;;;4.50;1.50;;;11.10;90.90;;;;;;5034964;28;20045;-71
2021/05/22 02:47:16;;;;;;;5.70;1.70;;;11.10;90.90;;;;;;5034598;28;20519;-71
2021/05/22 02:49:44;;;;;;;5.95;1.95;;;11.10;90.90;;;;;;5034397;28;20381;-71
2021/05/22 02:52:12;;;;;;;9.63;2.00;;;11.10;91.10;;;;;;5035119;28;20112;-72
2021/05/22 02:54:40;;;;;;;8.27;1.50;;;11.20;91.00;;;;;;5035232;28;20034;-71
2021/05/22 02:57:08;;;;;;;6.78;1.40;;;11.20;90.90;;;;;;5035180;28;20073;-71
2021/05/22 02:59:35;;;;;;;6.70;1.90;;;11.20;90.70;;;;;;5034291;28;20120;-71
2021/05/22 03:02:02;;;;;;;8.82;1.58;;;11.10;90.60;;;;;;5017432;28;20041;-71
2021/05/22 03:04:30;;;;;;;7.75;1.50;;;11.10;90.70;;;;;;5034460;28;20037;-71
2021/05/22 03:06:56;;;;;;;5.03;1.50;;;11.20;90.90;;;;;;5034220;28;20091;-71
2021/05/22 03:09:21;;;;;;;5.03;1.55;;;11.10;91.10;;;;;;5033890;28;20440;-71
2021/05/22 03:11:47;;;;;;;11.85;1.48;;;11.10;90.90;;;;;;5034257;28;20538;-71
2021/05/22 03:14:13;;;;;;;8.07;1.80;;;11.10;90.90;;;;;;5034080;28;20041;-71
2021/05/22 03:16:38;;;;;;;5.90;1.60;;;11.10;91.00;;;;;;5034626;28;20037;-71
2021/05/22 03:19:04;;;;;;;11.18;1.92;;;11.10;91.40;;;;;;5033755;28;20045;-72
2021/05/22 03:21:31;;;;;;;3.20;1.42;;;11.00;91.60;;;;;;5034426;28;20037;-71
2021/05/22 03:23:56;;;;;;;4.57;1.55;;;11.00;91.50;;;;;;5033898;28;20084;-71
2021/05/22 03:26:22;;;;;;;9.07;2.03;;;10.90;91.60;;;;;;5033941;28;20492;-71
2021/05/22 03:28:48;;;;;;;6.05;1.60;;;10.90;92.70;;;;;;5032699;28;20038;-71
2021/05/22 03:31:14;;;;;;;8.30;1.55;;;10.80;92.40;;;;;;5034049;28;20382;-71
2021/05/22 03:33:39;;;;;;;6.75;1.67;;;10.90;92.40;;;;;;5033760;28;20040;-71
2021/05/22 03:36:06;;;;;;;11.05;1.50;;;10.80;92.30;;;;;;5033716;28;20042;-71
2021/05/22 03:38:31;;;;;;;8.02;1.52;;;10.80;92.80;;;;;;5033582;28;20382;-71
2021/05/22 03:40:57;;;;;;;6.65;1.63;;;10.80;93.00;;;;;;5033569;28;20044;-71
2021/05/22 03:43:23;;;;;;;8.52;1.88;;;10.80;92.90;;;;;;5034180;28;20038;-71
2021/05/22 03:45:48;;;;;;;6.70;1.67;;;10.70;92.80;;;;;;5033644;28;20037;-71
2021/05/22 03:48:14;;;;;;;5.22;1.75;;;10.70;93.50;;;;;;5033513;28;20107;-71
2021/05/22 03:50:40;;;;;;;5.65;1.85;;;10.60;93.70;;;;;;5033337;28;20044;-71
2021/05/22 03:53:08;;;;;;;6.40;1.75;;;10.50;93.90;;;;;;5033442;28;20038;-71
2021/05/22 03:55:33;;;;;;;6.45;1.75;;;10.60;93.70;;;;;;5033655;28;20227;-71
2021/05/22 03:58:00;;;;;;;8.77;2.42;;;10.50;95.00;;;;;;5033918;28;20041;-71
2021/05/22 04:00:25;;;;;;;12.52;2.10;;;10.50;94.80;;;;;;5033123;28;20037;-71
2021/05/22 04:02:51;;;;;;;7.07;1.65;;;10.40;94.70;;;;;;5034150;28;20095;-71
2021/05/22 04:05:17;;;;;;;5.47;2.03;;;10.40;94.80;;;;;;5033331;28;20041;-71
2021/05/22 04:07:43;;;;;;;7.05;1.70;;;10.40;95.00;;;;;;5033598;28;20033;-71
2021/05/22 04:10:09;;;;;;;11.73;2.22;;;10.40;95.10;;;;;;5033267;28;20042;-71
2021/05/22 04:12:35;;;;;;;5.20;2.25;;;10.30;95.40;;;;;;5033551;28;20049;-71
2021/05/22 04:15:01;;;;;;;4.63;2.15;;;10.30;95.30;;;;;;5033357;28;20037;-71
2021/05/22 04:17:27;;;;;;;5.47;1.75;;;10.30;95.70;;;;;;5033206;28;20042;-71
2021/05/22 04:19:52;;;;;;;7.45;1.63;;;10.20;95.70;;;;;;5032848;28;20037;-71
2021/05/22 04:22:18;;;;;;;10.30;3.15;;;10.30;95.90;;;;;;5033273;28;20037;-71
2021/05/22 04:24:44;;;;;;;6.60;1.60;;;10.20;95.80;;;;;;5033187;28;20501;-71
2021/05/22 04:27:10;;;;;;;7.32;2.03;;;10.20;96.10;;;;;;5033323;28;20038;-71
2021/05/22 04:29:36;;;;;;;9.05;2.55;;;10.20;96.50;;;;;;5032747;28;20037;-71
2021/05/22 04:32:01;;;;;;;6.38;2.10;;;10.10;96.40;;;;;;5033253;28;20033;-71
2021/05/22 04:34:27;;;;;;;8.80;2.85;;;10.20;96.60;;;;;;5033304;28;20045;-71
2021/05/22 04:36:53;;;;;;;5.57;1.95;;;10.20;96.60;;;;;;5033081;28;20045;-71
2021/05/22 04:39:18;;;;;;;5.38;2.47;;;10.20;96.40;;;;;;5033667;28;20042;-71
2021/05/22 04:41:44;;;;;;;7.68;2.65;;;10.20;96.80;;;;;;5036987;28;20108;-71
2021/05/22 04:44:10;;;;;;;8.50;2.28;;;10.20;96.60;;;;;;5037350;28;20466;-71
2021/05/22 04:46:36;;;;;;;8.32;2.72;;;10.20;96.60;;;;;;5037386;28;20034;-71
2021/05/22 04:49:01;;;;;;;5.32;2.30;;;10.20;96.80;;;;;;5036642;28;20542;-71
2021/05/22 04:51:28;;;;;;;7.93;2.42;;;10.20;96.60;;;;;;5036772;28;20072;-72
2021/05/22 04:54:03;;;;;;;4.00;1.95;;;10.20;96.60;;;;;;5037041;28;20073;-71
2021/05/22 04:56:30;;;;;;;6.65;1.75;;;10.20;96.80;;;;;;5037086;28;20033;-71
2021/05/22 04:58:56;;;;;;;8.40;2.30;;;10.20;96.60;;;;;;5036938;28;20050;-71
2021/05/22 05:01:22;;;;;;;6.95;2.13;;;10.20;96.80;;;;;;5036783;28;20458;-71
2021/05/22 05:04:04;;;;;;;5.72;2.58;;;10.20;96.80;;;;;;5037005;28;20474;-71
2021/05/22 05:06:31;;;;;;;7.07;2.30;;;10.20;97.00;;;;;;5036936;28;20037;-71
2021/05/22 05:08:56;;;;;;;7.95;2.58;;;10.30;97.00;;;;;;5037299;28;20500;-71
2021/05/22 05:11:22;;;;;;;7.93;2.40;;;10.20;97.10;;;;;;5037747;28;20115;-71
2021/05/22 05:13:48;;;;;;;12.45;2.58;;;10.20;97.10;;;;;;5037384;28;20412;-71
2021/05/22 05:16:14;;;;;;;10.02;2.33;;;10.20;97.30;;;;;;5037228;28;20048;-71
2021/05/22 05:18:40;;;;;;;9.43;2.80;;;10.20;97.30;;;;;;5036823;28;20041;-71
2021/05/22 05:21:06;;;;;;;7.43;2.38;;;10.20;97.30;;;;;;5036553;28;20041;-71
2021/05/22 05:23:31;;;;;;;5.72;2.85;;;10.20;97.40;;;;;;5036415;28;20087;-71
2021/05/22 05:25:57;;;;;;;9.07;2.60;;;10.20;97.50;;;;;;5036727;28;20483;-71
2021/05/22 05:28:22;;;;;;;7.50;3.03;;;10.10;97.90;;;;;;5036286;28;20568;-71
2021/05/22 05:30:48;;;;;;;5.68;2.63;;;10.10;98.10;;;;;;5035985;28;20044;-71
2021/05/22 05:33:14;;;;;;;8.48;3.15;;;10.10;98.00;;;;;;5036248;28;20132;-71
2021/05/22 05:35:40;;;;;;;6.80;3.50;;;10.20;98.20;;;;;;5036176;28;20037;-71
2021/05/22 05:38:06;;;;;;;5.55;2.78;;;10.20;98.10;;;;;;5036072;28;20041;-71
2021/05/22 05:40:32;;;;;;;10.57;2.83;;;10.20;97.70;;;;;;5035609;28;20434;-71
2021/05/22 05:42:57;;;;;;;4.95;2.25;;;10.20;97.80;;;;;;5035890;28;20076;-71
2021/05/22 05:45:24;;;;;;;6.03;2.85;;;10.30;97.80;;;;;;5036543;28;20480;-71
2021/05/22 05:47:53;;;;;;;5.18;2.55;;;10.30;97.90;;;;;;5036149;28;20398;-71
2021/05/22 05:50:18;;;;;;;7.90;2.30;;;10.40;98.00;;;;;;5035588;28;20037;-71
2021/05/22 05:52:45;;;;;;;6.35;3.00;;;10.40;97.90;;;;;;5035357;28;20064;-71
2021/05/22 05:55:12;;;;;;;6.72;2.88;;;10.30;98.00;;;;;;5036171;28;20095;-71
2021/05/22 05:57:38;;;;;;;7.13;2.92;;;10.40;97.90;;;;;;5035767;28;20045;-71
2021/05/22 06:00:05;;;;;;;5.03;2.58;;;10.40;97.60;;;;;;5035235;28;20060;-71
2021/05/22 06:02:31;;;;;;;5.25;2.47;;;10.40;97.80;;;;;;5035572;28;20087;-71
2021/05/22 06:04:57;;;;;;;5.40;2.65;;;10.40;97.90;;;;;;5035685;28;20060;-71
2021/05/22 06:07:23;;;;;;;5.82;2.47;;;10.40;97.50;;;;;;5035729;28;20535;-71
2021/05/22 06:09:49;;;;;;;6.63;2.95;;;10.50;97.50;;;;;;5035090;28;20041;-71
2021/05/22 06:12:15;;;;;;;8.18;3.25;;;10.50;97.90;;;;;;5035356;28;20504;-71
2021/05/22 06:14:45;;;;;;;7.38;2.50;;;10.50;98.00;;;;;;5035433;28;20072;-71
2021/05/22 06:17:12;;;;;;;6.30;2.38;;;10.50;97.90;;;;;;5035418;28;20045;-71
2021/05/22 06:19:38;;;;;;;7.03;2.38;;;10.50;98.20;;;;;;5034774;28;20479;-71
2021/05/22 06:22:04;;;;;;;4.30;2.40;;;10.50;97.90;;;;;;5035960;28;20041;-71
2021/05/22 06:24:29;;;;;;;6.20;2.22;;;10.50;97.80;;;;;;5035437;28;20500;-71
2021/05/22 06:26:57;;;;;;;5.00;2.45;;;10.50;97.90;;;;;;5035672;28;20034;-71
2021/05/22 06:29:23;;;;;;;6.85;2.67;;;10.50;98.10;;;;;;5034750;28;20041;-71
2021/05/22 06:31:49;;;;;;;7.47;2.33;;;10.50;97.80;;;;;;5035198;28;20116;-71
2021/05/22 06:34:14;;;;;;;10.65;2.47;;;10.50;98.00;;;;;;5017319;28;20405;-71
2021/05/22 06:36:40;;;;;;;5.82;2.78;;;10.50;98.10;;;;;;5035041;28;20041;-71
2021/05/22 06:39:06;;;;;;;8.40;2.53;;;10.50;98.00;;;;;;5034855;28;20038;-71
2021/05/22 06:41:32;;;;;;;3.88;2.65;;;10.50;98.10;;;;;;5034984;28;20037;-71
2021/05/22 06:43:58;;;;;;;3.63;2.45;;;10.50;98.30;;;;;;5035528;28;20041;-71
2021/05/22 06:48:49;;;;;;;4.53;2.10;;;10.50;98.50;;;;;;5034302;28;20436;-71
2021/05/22 06:51:15;;;;;;;4.78;2.50;;;10.50;98.80;;;;;;5034682;28;20064;-71
2021/05/22 06:53:41;;;;;;;5.05;2.70;;;10.40;98.80;;;;;;5034993;28;20064;-71
2021/05/22 06:56:07;;;;;;;9.48;3.03;;;10.40;98.90;;;;;;5035282;28;20033;-71
2021/05/22 06:58:32;;;;;;;8.63;3.35;;;10.40;98.80;;;;;;5034356;28;20555;-71
2021/05/22 07:00:58;;;;;;;5.45;2.75;;;10.40;99.10;;;;;;5034411;28;20072;-71
2021/05/22 07:03:25;;;;;;;5.10;2.80;;;10.40;99.10;;;;;;5033639;28;20037;-70
2021/05/22 07:05:51;;;;;;;3.35;2.58;;;10.40;99.30;;;;;;5017198;28;20095;-71
2021/05/22 07:08:17;;;;;;;6.10;2.35;;;10.40;99.30;;;;;;5016798;28;20045;-71
2021/05/22 07:10:43;;;;;;;8.68;2.63;;;10.40;99.30;;;;;;5034590;28;20450;-71
2021/05/22 07:13:09;;;;;;;5.28;2.70;;;10.40;99.50;;;;;;5034203;28;20044;-71
2021/05/22 07:15:35;;;;;;;3.10;2.50;;;10.40;99.70;;;;;;5034245;28;20373;-71
2021/05/22 07:18:00;;;;;;;6.55;2.67;;;10.40;99.60;;;;;;5034160;28;20053;-71
2021/05/22 07:20:27;;;;;;;4.70;2.60;;;10.40;99.90;;;;;;5033641;28;20127;-71
2021/05/22 07:22:54;;;;;;;5.65;2.25;;;10.40;99.90;;;;;;5034553;28;20120;-71
2021/05/22 07:25:24;;;;;;;7.97;3.10;;;10.30;99.90;;;;;;5034601;28;20041;-71
2021/05/22 07:27:50;;;;;;;6.10;2.70;;;10.40;99.90;;;;;;5034024;28;20037;-71
2021/05/22 07:30:17;;;;;;;5.25;2.35;;;10.40;99.90;;;;;;5033755;28;20056;-71
2021/05/22 07:32:44;;;;;;;6.57;3.13;;;10.40;99.90;;;;;;5034179;28;20087;-71
2021/05/22 07:35:11;;;;;;;7.60;3.05;;;10.40;99.90;;;;;;5034275;28;20041;-71
2021/05/22 07:37:37;;;;;;;6.45;3.13;;;10.40;99.90;;;;;;5034284;28;20366;-71
2021/05/22 07:40:05;;;;;;;8.85;3.72;;;10.40;99.90;;;;;;5033338;28;20033;-71
2021/05/22 07:42:31;;;;;;;8.40;3.17;;;10.40;99.90;;;;;;5033787;28;20038;-71
2021/05/22 07:44:58;;;;;;;5.20;3.10;;;10.40;99.90;;;;;;5033723;28;20044;-71
2021/05/22 07:47:24;;;;;;;6.13;3.70;;;10.40;99.90;;;;;;5034109;28;20045;-71
2021/05/22 07:49:53;;;;;;;7.82;3.38;;;10.40;99.90;;;;;;5033232;28;20040;-71
2021/05/22 07:52:20;;;;;;;6.38;3.65;;;10.40;99.90;;;;;;5033501;28;20041;-71
2021/05/22 07:54:47;;;;;;;5.78;3.67;;;10.40;99.90;;;;;;5033618;28;20091;-72
2021/05/22 07:57:14;;;;;;;14.93;3.97;;;10.40;99.90;;;;;;5033442;28;20119;-71
2021/05/22 07:59:40;;;;;;;6.63;3.17;;;10.40;99.90;;;;;;5033064;28;20510;-71
2021/05/22 08:02:07;;;;;;;8.00;3.53;;;10.40;99.90;;;;;;5015715;28;20034;-71
2021/05/22 08:04:34;;;;;;;13.32;5.13;;;10.50;99.90;;;;;;5033626;28;20060;-71
2021/05/22 08:07:00;;;;;;;7.75;4.00;;;10.50;99.90;;;;;;5015921;28;20095;-72
2021/05/22 08:09:26;;;;;;;6.95;3.53;;;10.50;99.90;;;;;;5032948;28;20554;-71
2021/05/22 08:11:52;;;;;;;6.95;3.85;;;10.50;99.90;;;;;;5033935;28;20041;-69
2021/05/22 08:14:18;;;;;;;7.03;3.65;;;10.50;99.90;;;;;;5033424;28;20124;-70
2021/05/22 08:16:44;;;;;;;7.25;3.67;;;10.60;99.90;;;;;;5033257;28;20038;-71
2021/05/22 08:19:11;;;;;;;9.38;4.07;;;10.60;99.90;;;;;;5033335;28;20041;-68
2021/05/22 08:21:37;;;;;;;9.65;3.97;;;10.60;99.90;;;;;;5032994;28;20124;-73
2021/05/22 08:24:04;;;;;;;5.75;3.53;;;10.50;99.90;;;;;;5033849;28;20884;-74
2021/05/22 08:26:29;;;;;;;5.47;3.97;;;10.60;99.90;;;;;;5033199;28;20049;-74
2021/05/22 08:28:55;;;;;;;4.93;3.63;;;10.60;99.90;;;;;;5032864;28;20037;-73
2021/05/22 08:31:22;;;;;;;7.10;3.38;;;10.70;99.90;;;;;;5033053;28;20056;-74
2021/05/22 08:33:47;;;;;;;4.32;3.45;;;10.70;99.90;;;;;;5033629;28;20060;-73
2021/05/22 08:36:13;;;;;;;6.22;4.38;;;10.70;99.90;;;;;;5033066;28;20489;-74
2021/05/22 08:38:39;;;;;;;5.85;4.38;;;10.70;99.90;;;;;;5032726;28;20038;-74
2021/05/22 08:41:06;;;;;;;5.82;4.50;;;10.80;99.90;;;;;;5032966;28;20091;-73
2021/05/22 08:43:32;;;;;;;6.15;4.53;;;10.80;99.90;;;;;;5033656;28;20065;-74
2021/05/22 08:45:58;;;;;;;7.70;5.10;;;10.80;99.90;;;;;;5033437;28;20029;-74
2021/05/22 08:48:25;;;;;;;8.90;5.47;;;10.90;99.90;;;;;;5033308;28;20037;-74
2021/05/22 08:50:52;;;;;;;8.15;5.38;;;10.90;99.90;;;;;;5032783;28;20050;-74
2021/05/22 08:53:17;;;;;;;7.63;5.18;;;10.90;99.90;;;;;;5033215;28;20406;-73
2021/05/22 08:55:44;;;;;;;5.93;4.85;;;11.00;99.90;;;;;;5032861;28;20049;-73
2021/05/22 08:58:09;;;;;;;8.20;6.05;;;11.00;99.90;;;;;;5033203;28;20039;-74
2021/05/22 09:00:39;;;;;;;9.30;7.07;;;11.00;99.90;;;;;;5032472;28;20048;-73
2021/05/22 09:03:10;;;;;;;9.82;7.65;;;10.90;99.90;;;;;;5033547;28;20038;-73
2021/05/22 09:05:38;;;;;;;10.63;7.70;;;10.90;99.90;;;;;;5032848;28;20091;-74
2021/05/22 09:08:06;;;;;;;13.02;7.85;;;10.90;99.90;;;;;;5032850;28;20124;-73
2021/05/22 09:10:37;;;;;;;10.80;6.80;;;10.90;99.90;;;;;;5032645;28;20076;-74
2021/05/22 09:13:10;;;;;;;9.68;6.32;;;11.00;99.90;;;;;;5032993;28;20068;-73
2021/05/22 09:15:39;;;;;;;8.18;6.30;;;11.10;99.90;;;;;;5033130;28;20076;-74
2021/05/22 09:18:19;;;;;;;8.68;5.10;;;11.20;99.90;;;;;;5033329;28;20041;-72
2021/05/22 09:20:53;;;;;;;8.85;5.22;;;11.20;99.90;;;;;;5032281;28;20045;-72
2021/05/22 09:23:36;;;;;;;8.38;5.72;;;11.20;99.90;;;;;;5033085;28;20056;-73
2021/05/22 09:26:09;;;;;;;7.68;5.78;;;11.20;99.90;;;;;;5033062;28;20034;-73
2021/05/22 09:28:50;;;;;;;8.15;6.82;;;11.20;99.90;;;;;;5035810;28;20490;-73
2021/05/22 09:31:20;;;;;;;9.35;6.90;;;11.30;99.90;;;;;;5036996;28;20092;-73
2021/05/22 09:33:47;;;;;;;10.40;6.65;;;11.50;99.90;;;;;;5036937;28;20033;-73
2021/05/22 09:36:15;;;;;;;10.13;6.28;;;11.80;99.90;;;;;;5036633;28;20042;-73
2021/05/22 09:38:52;;;;;;;10.52;6.75;;;12.10;99.90;;;;;;5035963;28;20041;-73
2021/05/22 09:41:17;;;;;;;7.55;4.95;;;12.20;99.90;;;;;;5036516;28;20080;-73
2021/05/22 09:44:15;;;;;;;8.50;5.55;;;12.30;99.90;;;;;;5036050;28;20068;-73
2021/05/22 09:46:44;;;;;;;10.65;5.72;;;12.40;99.90;;;;;;5036406;28;20042;-73
2021/05/22 09:49:18;;;;;;;14.25;7.60;;;12.50;99.90;;;;;;5035530;28;20040;-73
2021/05/22 09:52:00;;;;;;;6.50;4.88;;;12.70;99.90;;;;;;5035830;28;20480;-73
2021/05/22 09:54:39;;;;;;;7.57;4.68;;;12.60;99.90;;;;;;5036331;28;20569;-73
2021/05/22 09:57:05;;;;;;;8.65;5.03;;;12.50;99.90;;;;;;5036265;28;20049;-73
2021/05/22 09:59:31;;;;;;;9.63;4.60;;;12.60;99.90;;;;;;5035697;28;20072;-73
2021/05/22 10:01:58;;;;;;;5.70;4.38;;;12.50;99.90;;;;;;5036296;28;20070;-73
2021/05/22 10:04:25;;;;;;;9.95;5.60;;;12.50;99.90;;;;;;5035519;28;20064;-73
2021/05/22 10:06:51;;;;;;;7.20;4.15;;;12.70;99.90;;;;;;5036058;28;20091;-73
2021/05/22 10:09:18;;;;;;;9.85;4.40;;;12.80;99.90;;;;;;5035205;28;20042;-73
2021/05/22 10:12:11;;;;;;;6.68;4.07;;;12.90;99.90;;;;;;5035752;28;20052;-73
2021/05/22 10:14:42;;;;;;;10.82;4.05;;;13.00;99.90;;;;;;5035869;28;20048;-74
2021/05/22 10:17:10;;;;;;;8.57;3.20;;;13.20;99.90;;;;;;5035778;28;20038;-74
2021/05/22 10:19:37;;;;;;;4.55;3.40;;;13.30;99.90;;;;;;5017401;28;20042;-74
2021/05/22 10:22:04;;;;;;;8.00;3.20;;;13.50;99.90;;;;;;5035265;28;20038;-74
2021/05/22 10:24:30;;;;;;;7.55;2.80;;;13.50;99.10;;;;;;5035833;28;20099;-74
2021/05/22 10:26:57;;;;;;;5.30;2.40;;;13.40;98.90;;;;;;5035242;28;20034;-74
2021/05/22 10:29:24;;;;;;;7.03;3.30;;;13.40;98.90;;;;;;5034705;28;20041;-73
2021/05/22 10:31:51;;;;;;;10.50;1.88;;;13.50;99.00;;;;;;5035126;28;20044;-74
2021/05/22 10:34:22;;;;;;;5.75;2.53;;;13.60;98.10;;;;;;5017478;28;20041;-74
2021/05/22 10:36:51;;;;;;;4.82;2.17;;;13.60;98.00;;;;;;5034998;28;20477;-73
2021/05/22 10:39:43;;;;;;;2.58;1.65;;;13.50;97.10;;;;;;5035087;28;20108;-74
2021/05/22 10:42:21;;;;;;;4.65;2.42;;;13.50;97.20;;;;;;5035182;28;20112;-74
2021/05/22 10:44:47;;;;;;;5.18;2.15;;;13.50;97.70;;;;;;5035244;28;20042;-72
2021/05/22 10:47:18;;;;;;;8.20;2.42;;;13.50;98.30;;;;;;5035184;28;20106;-73
2021/05/22 10:49:55;;;;;;;7.57;2.13;;;13.50;97.40;;;;;;5034610;28;20041;-73
2021/05/22 10:52:29;;;;;;;7.65;2.30;;;13.70;97.70;;;;;;5034672;28;20037;-73
2021/05/22 10:54:57;;;;;;;6.53;2.45;;;13.80;97.10;;;;;;5040075;28;20116;-74
2021/05/22 10:57:24;;;;;;;4.85;2.35;;;14.10;98.00;;;;;;5054617;28;20045;-74
2021/05/22 11:00:13;;;;;;;5.53;2.22;;;14.30;97.70;;;;;;5054207;28;20063;-74
2021/05/22 11:02:41;;;;;;;3.85;1.75;;;14.10;96.10;;;;;;5054192;28;20048;-74
2021/05/22 11:05:28;;;;;;;3.85;1.80;;;14.20;96.00;;;;;;5054297;28;20037;-74
2021/05/22 11:08:08;;;;;;;6.10;1.83;;;14.00;95.50;;;;;;5054327;28;20048;-74
2021/05/22 11:10:37;;;;;;;6.72;1.70;;;13.90;95.60;;;;;;5053968;28;20040;-75
2021/05/22 11:13:04;;;;;;;8.43;2.00;;;13.90;95.70;;;;;;5054280;28;20112;-75
2021/05/22 11:15:41;;;;;;;5.63;2.38;;;13.80;95.90;;;;;;5054291;28;20029;-74
2021/05/22 11:18:08;;;;;;;6.38;2.08;;;13.70;96.10;;;;;;5053985;28;20118;-74
2021/05/22 11:20:36;;;;;;;4.15;1.85;;;13.70;96.40;;;;;;5053696;28;20037;-74
2021/05/22 11:23:03;;;;;;;4.45;2.03;;;13.70;96.60;;;;;;5054228;28;20037;-74
2021/05/22 11:25:52;;;;;;;5.35;2.38;;;13.70;96.70;;;;;;5053894;28;20548;-75
2021/05/22 11:28:21;;;;;;;4.90;2.03;;;13.70;96.90;;;;;;5036084;28;20496;-74
2021/05/22 11:30:48;;;;;;;8.18;2.13;;;13.90;96.50;;;;;;5054067;28;20377;-74
2021/05/22 11:33:22;;;;;;;6.90;1.63;;;14.00;96.80;;;;;;5053014;28;20041;-74
2021/05/22 11:35:54;;;;;;;4.18;1.50;;;14.00;95.40;;;;;;5035258;28;20393;-74
2021/05/22 11:38:24;;;;;;;5.47;1.75;;;13.90;94.90;;;;;;5035057;28;20408;-75
2021/05/22 11:40:51;;;;;;;4.45;1.70;;;13.80;95.10;;;;;;5052694;28;20037;-75
2021/05/22 11:43:22;;;;;;;5.28;1.98;;;13.80;94.80;;;;;;5052730;28;20036;-75
2021/05/22 11:45:53;;;;;;;3.80;2.10;;;13.80;94.30;;;;;;5053529;28;20129;-74
2021/05/22 11:48:25;;;;;;;7.68;2.10;;;13.60;94.60;;;;;;5053565;28;20068;-74
2021/05/22 11:50:52;;;;;;;4.13;2.13;;;13.50;94.80;;;;;;5052957;28;20040;-74
2021/05/22 11:53:18;;;;;;;2.70;1.42;;;13.40;95.20;;;;;;5053653;28;20116;-73
2021/05/22 11:55:55;;;;;;;6.78;1.77;;;13.70;95.20;;;;;;5053445;28;20489;-73
2021/05/22 11:58:21;;;;;;;5.22;2.00;;;13.80;95.30;;;;;;5054038;28;20507;-77
2021/05/22 12:00:47;;;;;;;5.40;1.67;;;13.90;94.80;;;;;;5053840;28;20037;-73
2021/05/22 12:03:27;;;;;;;3.50;1.67;;;13.90;95.00;;;;;;5053249;28;20044;-71
2021/05/22 12:05:54;;;;;;;5.70;1.70;;;13.90;94.40;;;;;;5053311;28;20037;-72
2021/05/22 12:08:23;;;;;;;3.85;1.60;;;13.80;93.90;;;;;;5053287;28;20041;-73
2021/05/22 12:10:49;;;;;;;3.03;1.40;;;13.70;94.00;;;;;;5052771;28;20053;-73
2021/05/22 12:13:15;;;;;;;4.50;1.80;;;13.50;94.40;;;;;;5053161;28;20029;-73
2021/05/22 12:15:42;;;;;;;7.78;2.20;;;13.30;94.40;;;;;;5035631;28;20120;-73
2021/05/22 12:18:09;;;;;;;4.70;1.67;;;13.30;94.80;;;;;;5053488;28;20043;-73
2021/05/22 12:20:55;;;;;;;4.00;1.63;;;13.10;95.30;;;;;;5052590;28;20040;-73
2021/05/22 12:23:29;;;;;;;2.90;1.88;;;13.00;95.40;;;;;;5053319;28;20485;-73
2021/05/22 12:25:56;;;;;;;4.22;1.70;;;12.90;95.40;;;;;;5053145;28;20044;-73
2021/05/22 12:28:22;;;;;;;7.32;2.25;;;12.90;95.70;;;;;;5053099;28;20037;-74
2021/05/22 12:30:50;;;;;;;3.67;2.05;;;12.90;96.20;;;;;;5053084;28;20492;-73
2021/05/22 12:33:17;;;;;;;2.88;1.88;;;13.00;95.80;;;;;;5053191;28;20082;-73
2021/05/22 12:35:46;;;;;;;5.07;2.25;;;13.00;95.60;;;;;;5053650;28;20121;-73
2021/05/22 12:38:12;;;;;;;3.10;2.33;;;13.10;95.90;;;;;;5052977;28;20049;-73
2021/05/22 12:40:49;;;;;;;9.23;3.40;;;13.10;96.10;;;;;;5052555;28;20044;-73
2021/05/22 12:43:15;;;;;;;6.15;2.90;;;13.50;95.70;;;;;;5053020;28;20041;-73
2021/05/22 12:45:44;;;;;;;6.55;3.08;;;13.50;94.50;;;;;;5053542;28;20037;-73
2021/05/22 12:48:26;;;;;;;4.30;2.63;;;13.60;94.30;;;;;;5052788;28;20044;-73
2021/05/22 12:50:51;;;;;;;5.47;3.35;;;13.80;93.80;;;;;;5052689;28;20052;-73
2021/05/22 12:53:31;;;;;;;4.70;3.20;;;13.90;94.20;;;;;;5052836;28;20037;-73